sensor_id;sensor_type;location;lat;lon;timestamp;temperature;humidity
52621;DHT22;38515;53.160;6.990;2022-12-18T00:00:44;-3.20;99.90
52621;DHT22;38515;53.160;6.990;2022-12-18T00:03:13;-1.70;99.90
52621;DHT22;38515;53.160;6.990;2022-12-18T00:05:46;-2.60;99.90
52621;DHT22;38515;53.160;6.990;2022-12-18T00:10:39;-4.20;99.90
52621;DHT22;38515;53.160;6.990;2022-12-18T00:13:05;-4.30;99.90
52621;DHT22;38515;53.160;6.990;2022-12-18T00:15:36;-4.80;99.90
52621;DHT22;38515;53.160;6.990;2022-12-18T00:18:02;-4.40;99.90
52621;DHT22;38515;53.160;6.990;2022-12-18T00:20:28;-3.80;99.90
52621;DHT22;38515;53.160;6.990;2022-12-18T00:22:55;-5.10;99.90
52621;DHT22;38515;53.160;6.990;2022-12-18T00:27:47;-3.00;99.90
52621;DHT22;38515;53.160;6.990;2022-12-18T00:30:13;-4.60;99.90
52621;DHT22;38515;53.160;6.990;2022-12-18T00:32:39;-4.30;99.90
52621;DHT22;38515;53.160;6.990;2022-12-18T00:35:06;-4.80;99.90
52621;DHT22;38515;53.160;6.990;2022-12-18T00:37:36;-2.50;99.90
52621;DHT22;38515;53.160;6.990;2022-12-18T00:40:02;-4.50;99.90
52621;DHT22;38515;53.160;6.990;2022-12-18T00:42:28;-5.60;99.90
52621;DHT22;38515;53.160;6.990;2022-12-18T00:45:13;-6.80;99.90
52621;DHT22;38515;53.160;6.990;2022-12-18T00:47:39;-4.40;99.90
52621;DHT22;38515;53.160;6.990;2022-12-18T00:50:06;-5.90;99.90
52621;DHT22;38515;53.160;6.990;2022-12-18T00:52:32;-5.30;99.90
52621;DHT22;38515;53.160;6.990;2022-12-18T00:54:58;-3.60;99.90
52621;DHT22;38515;53.160;6.990;2022-12-18T00:57:23;-3.70;99.90
52621;DHT22;38515;53.160;6.990;2022-12-18T01:04:42;-4.70;99.90
52621;DHT22;38515;53.160;6.990;2022-12-18T01:07:08;-4.60;99.90
52621;DHT22;38515;53.160;6.990;2022-12-18T01:09:34;-5.60;99.90
52621;DHT22;38515;53.160;6.990;2022-12-18T01:12:00;-2.30;99.90
52621;DHT22;38515;53.160;6.990;2022-12-18T01:14:26;-4.80;99.90
52621;DHT22;38515;53.160;6.990;2022-12-18T01:16:52;-3.20;99.90
52621;DHT22;38515;53.160;6.990;2022-12-18T01:19:18;-5.40;99.90
52621;DHT22;38515;53.160;6.990;2022-12-18T01:24:11;-2.80;99.90
52621;DHT22;38515;53.160;6.990;2022-12-18T01:29:03;-4.70;99.90
52621;DHT22;38515;53.160;6.990;2022-12-18T01:31:31;-4.50;99.90
52621;DHT22;38515;53.160;6.990;2022-12-18T01:34:01;-6.30;99.90
52621;DHT22;38515;53.160;6.990;2022-12-18T01:36:31;-5.00;99.90
52621;DHT22;38515;53.160;6.990;2022-12-18T01:39:00;-6.50;99.90
52621;DHT22;38515;53.160;6.990;2022-12-18T01:41:28;-6.60;99.90
52621;DHT22;38515;53.160;6.990;2022-12-18T01:47:47;-3.10;99.90
52621;DHT22;38515;53.160;6.990;2022-12-18T01:55:36;-2.90;99.90
52621;DHT22;38515;53.160;6.990;2022-12-18T01:58:04;-5.40;99.90
52621;DHT22;38515;53.160;6.990;2022-12-18T02:00:30;-5.20;99.90
52621;DHT22;38515;53.160;6.990;2022-12-18T02:02:57;-4.90;99.90
52621;DHT22;38515;53.160;6.990;2022-12-18T02:05:45;-5.10;99.90
52621;DHT22;38515;53.160;6.990;2022-12-18T02:11:07;-5.10;99.90
52621;DHT22;38515;53.160;6.990;2022-12-18T02:18:58;-5.40;99.90
52621;DHT22;38515;53.160;6.990;2022-12-18T02:21:40;-5.50;99.90
52621;DHT22;38515;53.160;6.990;2022-12-18T02:24:32;-5.40;99.90
52621;DHT22;38515;53.160;6.990;2022-12-18T02:27:07;-3.70;99.90
52621;DHT22;38515;53.160;6.990;2022-12-18T02:29:44;-7.80;99.90
52621;DHT22;38515;53.160;6.990;2022-12-18T02:32:16;-5.60;99.90
52621;DHT22;38515;53.160;6.990;2022-12-18T02:34:44;-5.60;99.90
52621;DHT22;38515;53.160;6.990;2022-12-18T02:37:13;-4.60;99.90
52621;DHT22;38515;53.160;6.990;2022-12-18T02:39:42;-2.90;99.90
52621;DHT22;38515;53.160;6.990;2022-12-18T02:42:09;-8.50;99.90
52621;DHT22;38515;53.160;6.990;2022-12-18T02:44:45;-6.60;99.90
52621;DHT22;38515;53.160;6.990;2022-12-18T02:47:13;-6.80;99.90
52621;DHT22;38515;53.160;6.990;2022-12-18T02:53:01;-7.40;99.90
52621;DHT22;38515;53.160;6.990;2022-12-18T02:58:24;-5.90;99.90
52621;DHT22;38515;53.160;6.990;2022-12-18T03:03:49;-7.50;99.90
52621;DHT22;38515;53.160;6.990;2022-12-18T03:06:27;-6.10;99.90
52621;DHT22;38515;53.160;6.990;2022-12-18T03:08:59;-5.10;99.90
52621;DHT22;38515;53.160;6.990;2022-12-18T03:11:29;-8.10;99.90
52621;DHT22;38515;53.160;6.990;2022-12-18T03:14:16;-6.10;99.90
52621;DHT22;38515;53.160;6.990;2022-12-18T03:16:44;-6.90;99.90
52621;DHT22;38515;53.160;6.990;2022-12-18T03:19:15;-5.90;99.90
52621;DHT22;38515;53.160;6.990;2022-12-18T03:21:55;-6.90;99.90
52621;DHT22;38515;53.160;6.990;2022-12-18T03:24:24;-4.10;99.90
52621;DHT22;38515;53.160;6.990;2022-12-18T03:26:55;-7.20;99.90
52621;DHT22;38515;53.160;6.990;2022-12-18T03:29:27;-7.10;99.90
52621;DHT22;38515;53.160;6.990;2022-12-18T03:32:00;-7.80;99.90
52621;DHT22;38515;53.160;6.990;2022-12-18T03:34:31;-5.00;99.90
52621;DHT22;38515;53.160;6.990;2022-12-18T03:36:58;-8.50;99.90
52621;DHT22;38515;53.160;6.990;2022-12-18T03:39:24;-5.80;99.90
52621;DHT22;38515;53.160;6.990;2022-12-18T03:47:12;-5.00;99.90
52621;DHT22;38515;53.160;6.990;2022-12-18T03:50:50;-6.50;99.90
52621;DHT22;38515;53.160;6.990;2022-12-18T03:52:54;-2.90;99.90
52621;DHT22;38515;53.160;6.990;2022-12-18T03:55:25;-8.00;99.90
52621;DHT22;38515;53.160;6.990;2022-12-18T03:57:54;-6.40;99.90
52621;DHT22;38515;53.160;6.990;2022-12-18T04:02:52;-6.70;99.90
52621;DHT22;38515;53.160;6.990;2022-12-18T04:05:20;-7.70;99.90
52621;DHT22;38515;53.160;6.990;2022-12-18T04:07:48;-7.00;99.90
52621;DHT22;38515;53.160;6.990;2022-12-18T04:10:16;-6.10;99.90
52621;DHT22;38515;53.160;6.990;2022-12-18T04:15:09;-5.50;99.90
52621;DHT22;38515;53.160;6.990;2022-12-18T04:20:02;-6.70;99.90
52621;DHT22;38515;53.160;6.990;2022-12-18T04:22:28;-6.70;99.90
52621;DHT22;38515;53.160;6.990;2022-12-18T04:27:20;-6.50;99.90
52621;DHT22;38515;53.160;6.990;2022-12-18T04:32:12;-5.60;99.90
52621;DHT22;38515;53.160;6.990;2022-12-18T04:34:38;-6.30;99.90
52621;DHT22;38515;53.160;6.990;2022-12-18T04:44:23;-7.90;99.90
52621;DHT22;38515;53.160;6.990;2022-12-18T04:46:49;-6.80;99.90
52621;DHT22;38515;53.160;6.990;2022-12-18T04:51:41;-4.90;99.90
52621;DHT22;38515;53.160;6.990;2022-12-18T04:58:59;-6.00;99.90
52621;DHT22;38515;53.160;6.990;2022-12-18T05:03:51;-8.30;99.90
52621;DHT22;38515;53.160;6.990;2022-12-18T05:06:18;-7.30;99.90
52621;DHT22;38515;53.160;6.990;2022-12-18T05:08:43;-5.80;99.90
52621;DHT22;38515;53.160;6.990;2022-12-18T05:11:11;-7.30;99.90
52621;DHT22;38515;53.160;6.990;2022-12-18T05:13:39;-9.50;99.90
52621;DHT22;38515;53.160;6.990;2022-12-18T05:18:32;-7.40;99.90
52621;DHT22;38515;53.160;6.990;2022-12-18T05:23:24;-7.30;99.90
52621;DHT22;38515;53.160;6.990;2022-12-18T05:25:59;-7.30;99.90
52621;DHT22;38515;53.160;6.990;2022-12-18T05:28:26;-6.60;99.90
52621;DHT22;38515;53.160;6.990;2022-12-18T05:30:55;-7.30;99.90
52621;DHT22;38515;53.160;6.990;2022-12-18T05:33:22;-7.30;99.90
52621;DHT22;38515;53.160;6.990;2022-12-18T05:35:53;-6.80;99.90
52621;DHT22;38515;53.160;6.990;2022-12-18T05:38:21;-7.80;99.90
52621;DHT22;38515;53.160;6.990;2022-12-18T05:40:48;-9.60;99.90
52621;DHT22;38515;53.160;6.990;2022-12-18T05:43:14;-7.70;99.90
52621;DHT22;38515;53.160;6.990;2022-12-18T05:48:07;-5.40;99.90
52621;DHT22;38515;53.160;6.990;2022-12-18T05:50:37;-9.70;99.90
52621;DHT22;38515;53.160;6.990;2022-12-18T05:53:03;-7.30;99.90
52621;DHT22;38515;53.160;6.990;2022-12-18T05:55:33;-7.20;99.90
52621;DHT22;38515;53.160;6.990;2022-12-18T05:57:59;-6.20;99.90
52621;DHT22;38515;53.160;6.990;2022-12-18T06:00:25;-6.90;99.90
52621;DHT22;38515;53.160;6.990;2022-12-18T06:07:44;-7.30;99.90
52621;DHT22;38515;53.160;6.990;2022-12-18T06:12:37;-5.90;99.90
52621;DHT22;38515;53.160;6.990;2022-12-18T06:17:30;-7.10;99.90
52621;DHT22;38515;53.160;6.990;2022-12-18T06:19:56;-6.40;99.90
52621;DHT22;38515;53.160;6.990;2022-12-18T06:24:48;-6.00;99.90
52621;DHT22;38515;53.160;6.990;2022-12-18T06:27:14;-7.20;99.90
52621;DHT22;38515;53.160;6.990;2022-12-18T06:32:06;-6.00;99.90
52621;DHT22;38515;53.160;6.990;2022-12-18T06:34:33;-7.40;99.90
52621;DHT22;38515;53.160;6.990;2022-12-18T06:36:59;-6.20;99.90
52621;DHT22;38515;53.160;6.990;2022-12-18T06:39:27;-7.50;99.90
52621;DHT22;38515;53.160;6.990;2022-12-18T06:46:46;-9.00;99.90
52621;DHT22;38515;53.160;6.990;2022-12-18T06:51:38;-7.50;99.90
52621;DHT22;38515;53.160;6.990;2022-12-18T06:54:04;-6.00;99.90
52621;DHT22;38515;53.160;6.990;2022-12-18T06:56:30;-7.60;99.90
52621;DHT22;38515;53.160;6.990;2022-12-18T07:03:54;-7.60;99.90
52621;DHT22;38515;53.160;6.990;2022-12-18T07:06:23;-6.00;99.90
52621;DHT22;38515;53.160;6.990;2022-12-18T07:08:49;-7.60;99.90
52621;DHT22;38515;53.160;6.990;2022-12-18T07:11:17;-7.70;99.90
52621;DHT22;38515;53.160;6.990;2022-12-18T07:13:43;-8.60;99.90
52621;DHT22;38515;53.160;6.990;2022-12-18T07:16:15;-7.30;99.90
52621;DHT22;38515;53.160;6.990;2022-12-18T07:18:41;-8.00;99.90
52621;DHT22;38515;53.160;6.990;2022-12-18T07:21:10;-7.50;99.90
52621;DHT22;38515;53.160;6.990;2022-12-18T07:23:36;-7.50;99.90
52621;DHT22;38515;53.160;6.990;2022-12-18T07:26:05;-7.40;99.90
52621;DHT22;38515;53.160;6.990;2022-12-18T07:28:32;-6.50;99.90
52621;DHT22;38515;53.160;6.990;2022-12-18T07:31:02;-7.40;99.90
52621;DHT22;38515;53.160;6.990;2022-12-18T07:33:28;-8.20;99.90
52621;DHT22;38515;53.160;6.990;2022-12-18T07:38:21;-7.40;99.90
52621;DHT22;38515;53.160;6.990;2022-12-18T07:43:13;-6.90;99.90
52621;DHT22;38515;53.160;6.990;2022-12-18T07:45:38;-6.30;99.90
52621;DHT22;38515;53.160;6.990;2022-12-18T07:52:57;-7.30;99.90
52621;DHT22;38515;53.160;6.990;2022-12-18T07:57:49;-7.10;99.90
52621;DHT22;38515;53.160;6.990;2022-12-18T08:00:15;-5.80;99.90
52621;DHT22;38515;53.160;6.990;2022-12-18T08:02:42;-5.20;99.90
52621;DHT22;38515;53.160;6.990;2022-12-18T08:12:26;-7.30;99.90
52621;DHT22;38515;53.160;6.990;2022-12-18T08:17:19;-6.40;99.90
52621;DHT22;38515;53.160;6.990;2022-12-18T08:19:45;-8.40;99.90
52621;DHT22;38515;53.160;6.990;2022-12-18T08:27:04;-7.40;99.90
52621;DHT22;38515;53.160;6.990;2022-12-18T08:29:29;-8.50;99.90
52621;DHT22;38515;53.160;6.990;2022-12-18T08:31:56;-8.00;99.90
52621;DHT22;38515;53.160;6.990;2022-12-18T08:34:22;-4.90;99.90
52621;DHT22;38515;53.160;6.990;2022-12-18T08:36:47;-5.50;99.90
52621;DHT22;38515;53.160;6.990;2022-12-18T08:39:13;-6.30;99.90
52621;DHT22;38515;53.160;6.990;2022-12-18T08:41:39;-7.00;99.90
52621;DHT22;38515;53.160;6.990;2022-12-18T08:44:07;-7.30;99.90
52621;DHT22;38515;53.160;6.990;2022-12-18T08:46:51;-6.70;99.90
52621;DHT22;38515;53.160;6.990;2022-12-18T08:49:17;-5.40;99.90
52621;DHT22;38515;53.160;6.990;2022-12-18T08:54:12;-6.10;99.90
52621;DHT22;38515;53.160;6.990;2022-12-18T08:56:39;-6.60;99.90
52621;DHT22;38515;53.160;6.990;2022-12-18T09:08:51;-6.40;99.90
52621;DHT22;38515;53.160;6.990;2022-12-18T09:11:22;-5.80;99.90
52621;DHT22;38515;53.160;6.990;2022-12-18T09:13:49;-5.80;99.90
52621;DHT22;38515;53.160;6.990;2022-12-18T09:16:16;-5.60;99.90
52621;DHT22;38515;53.160;6.990;2022-12-18T09:21:14;-5.40;99.90
52621;DHT22;38515;53.160;6.990;2022-12-18T09:23:41;-6.20;99.90
52621;DHT22;38515;53.160;6.990;2022-12-18T09:26:07;-3.40;99.90
52621;DHT22;38515;53.160;6.990;2022-12-18T09:28:33;-7.40;99.90
52621;DHT22;38515;53.160;6.990;2022-12-18T09:31:05;-5.90;99.90
52621;DHT22;38515;53.160;6.990;2022-12-18T09:33:32;-5.70;99.90
52621;DHT22;38515;53.160;6.990;2022-12-18T09:36:00;-3.20;99.90
52621;DHT22;38515;53.160;6.990;2022-12-18T09:43:52;-4.50;99.90
52621;DHT22;38515;53.160;6.990;2022-12-18T09:46:27;-4.00;99.90
52621;DHT22;38515;53.160;6.990;2022-12-18T09:48:58;-4.40;99.90
52621;DHT22;38515;53.160;6.990;2022-12-18T09:51:38;-2.40;99.90
52621;DHT22;38515;53.160;6.990;2022-12-18T09:54:23;-4.00;99.90
52621;DHT22;38515;53.160;6.990;2022-12-18T09:56:51;-3.50;99.90
52621;DHT22;38515;53.160;6.990;2022-12-18T10:01:45;-4.20;99.90
52621;DHT22;38515;53.160;6.990;2022-12-18T10:04:12;-5.10;99.90
52621;DHT22;38515;53.160;6.990;2022-12-18T10:07:07;-3.40;99.90
52621;DHT22;38515;53.160;6.990;2022-12-18T10:09:47;-4.30;99.90
52621;DHT22;38515;53.160;6.990;2022-12-18T10:15:07;-3.90;99.90
52621;DHT22;38515;53.160;6.990;2022-12-18T10:17:51;-6.40;99.90
52621;DHT22;38515;53.160;6.990;2022-12-18T10:20:34;-3.80;99.90
52621;DHT22;38515;53.160;6.990;2022-12-18T10:28:30;-3.80;99.90
52621;DHT22;38515;53.160;6.990;2022-12-18T10:30:56;-4.60;99.90
52621;DHT22;38515;53.160;6.990;2022-12-18T10:33:27;-2.50;99.90
52621;DHT22;38515;53.160;6.990;2022-12-18T10:35:54;-2.00;99.90
52621;DHT22;38515;53.160;6.990;2022-12-18T10:38:24;-1.70;99.90
52621;DHT22;38515;53.160;6.990;2022-12-18T10:40:54;-2.60;99.90
52621;DHT22;38515;53.160;6.990;2022-12-18T10:43:37;-2.40;99.90
52621;DHT22;38515;53.160;6.990;2022-12-18T10:48:49;-2.60;99.90
52621;DHT22;38515;53.160;6.990;2022-12-18T10:51:33;-0.90;99.90
52621;DHT22;38515;53.160;6.990;2022-12-18T10:56:27;-0.90;99.90
52621;DHT22;38515;53.160;6.990;2022-12-18T10:59:02;-4.40;99.90
52621;DHT22;38515;53.160;6.990;2022-12-18T11:01:47;-3.20;99.90
52621;DHT22;38515;53.160;6.990;2022-12-18T11:04:21;-4.80;99.90
52621;DHT22;38515;53.160;6.990;2022-12-18T11:09:28;-2.70;99.90
52621;DHT22;38515;53.160;6.990;2022-12-18T11:11:57;-4.00;99.90
52621;DHT22;38515;53.160;6.990;2022-12-18T11:16:54;-2.70;99.90
52621;DHT22;38515;53.160;6.990;2022-12-18T11:19:30;-0.50;99.90
52621;DHT22;38515;53.160;6.990;2022-12-18T11:21:57;-1.30;99.90
52621;DHT22;38515;53.160;6.990;2022-12-18T11:24:28;-3.60;99.90
52621;DHT22;38515;53.160;6.990;2022-12-18T11:26:57;-1.10;99.90
52621;DHT22;38515;53.160;6.990;2022-12-18T11:29:37;-3.90;99.90
52621;DHT22;38515;53.160;6.990;2022-12-18T11:32:43;-0.70;99.90
52621;DHT22;38515;53.160;6.990;2022-12-18T11:35:34;-3.10;99.90
52621;DHT22;38515;53.160;6.990;2022-12-18T11:38:22;-2.30;99.90
52621;DHT22;38515;53.160;6.990;2022-12-18T11:40:57;-4.20;99.90
52621;DHT22;38515;53.160;6.990;2022-12-18T11:43:35;-4.00;99.90
52621;DHT22;38515;53.160;6.990;2022-12-18T11:46:12;-2.30;99.90
52621;DHT22;38515;53.160;6.990;2022-12-18T11:48:57;-3.20;99.90
52621;DHT22;38515;53.160;6.990;2022-12-18T11:54:13;-1.10;99.90
52621;DHT22;38515;53.160;6.990;2022-12-18T11:56:53;-2.10;99.90
52621;DHT22;38515;53.160;6.990;2022-12-18T12:04:56;-1.10;99.90
52621;DHT22;38515;53.160;6.990;2022-12-18T12:07:44;-0.70;99.90
52621;DHT22;38515;53.160;6.990;2022-12-18T12:13:00;-3.10;99.90
52621;DHT22;38515;53.160;6.990;2022-12-18T12:21:05;-0.70;99.90
52621;DHT22;38515;53.160;6.990;2022-12-18T12:24:07;-1.90;99.90
52621;DHT22;38515;53.160;6.990;2022-12-18T12:40:33;-1.70;99.90
52621;DHT22;38515;53.160;6.990;2022-12-18T12:43:09;-1.70;99.90
52621;DHT22;38515;53.160;6.990;2022-12-18T12:48:35;-1.10;99.90
52621;DHT22;38515;53.160;6.990;2022-12-18T12:51:26;-1.60;99.90
52621;DHT22;38515;53.160;6.990;2022-12-18T12:53:50;0.40;99.90
52621;DHT22;38515;53.160;6.990;2022-12-18T12:56:19;0.30;99.90
52621;DHT22;38515;53.160;6.990;2022-12-18T13:06:54;0.60;99.90
52621;DHT22;38515;53.160;6.990;2022-12-18T13:09:21;-2.70;99.90
52621;DHT22;38515;53.160;6.990;2022-12-18T13:11:48;-0.50;99.90
52621;DHT22;38515;53.160;6.990;2022-12-18T13:14:36;-1.60;99.90
52621;DHT22;38515;53.160;6.990;2022-12-18T13:19:41;-0.80;99.90
52621;DHT22;38515;53.160;6.990;2022-12-18T13:22:30;-2.40;99.90
52621;DHT22;38515;53.160;6.990;2022-12-18T13:25:00;1.00;99.90
52621;DHT22;38515;53.160;6.990;2022-12-18T13:43:52;-1.70;99.90
52621;DHT22;38515;53.160;6.990;2022-12-18T13:51:21;0.00;99.90
52621;DHT22;38515;53.160;6.990;2022-12-18T13:53:48;-0.20;99.90
52621;DHT22;38515;53.160;6.990;2022-12-18T13:56:16;0.90;99.90
52621;DHT22;38515;53.160;6.990;2022-12-18T13:58:42;-2.40;99.90
52621;DHT22;38515;53.160;6.990;2022-12-18T14:01:24;-1.30;99.90
52621;DHT22;38515;53.160;6.990;2022-12-18T14:03:50;-2.10;99.90
52621;DHT22;38515;53.160;6.990;2022-12-18T14:06:16;-2.00;99.90
52621;DHT22;38515;53.160;6.990;2022-12-18T14:08:43;-0.10;99.90
52621;DHT22;38515;53.160;6.990;2022-12-18T14:11:20;-3.40;99.90
52621;DHT22;38515;53.160;6.990;2022-12-18T14:13:47;-0.70;99.90
52621;DHT22;38515;53.160;6.990;2022-12-18T14:16:15;-2.20;99.90
52621;DHT22;38515;53.160;6.990;2022-12-18T14:18:45;-0.20;99.90
52621;DHT22;38515;53.160;6.990;2022-12-18T14:21:25;-1.20;99.90
52621;DHT22;38515;53.160;6.990;2022-12-18T14:24:13;-0.70;99.90
52621;DHT22;38515;53.160;6.990;2022-12-18T14:26:43;-3.20;99.90
52621;DHT22;38515;53.160;6.990;2022-12-18T14:29:30;-0.50;99.90
52621;DHT22;38515;53.160;6.990;2022-12-18T14:34:34;-2.90;99.90
52621;DHT22;38515;53.160;6.990;2022-12-18T14:39:26;-3.80;99.90
52621;DHT22;38515;53.160;6.990;2022-12-18T14:41:52;-3.30;99.90
52621;DHT22;38515;53.160;6.990;2022-12-18T14:44:18;-0.50;99.90
52621;DHT22;38515;53.160;6.990;2022-12-18T14:46:48;-2.40;99.90
52621;DHT22;38515;53.160;6.990;2022-12-18T14:51:53;-3.80;99.90
52621;DHT22;38515;53.160;6.990;2022-12-18T14:54:21;-2.50;99.90
52621;DHT22;38515;53.160;6.990;2022-12-18T14:56:51;-1.10;99.90
52621;DHT22;38515;53.160;6.990;2022-12-18T14:59:22;-2.50;99.90
52621;DHT22;38515;53.160;6.990;2022-12-18T15:04:30;-3.20;99.90
52621;DHT22;38515;53.160;6.990;2022-12-18T15:07:20;-3.40;99.90
52621;DHT22;38515;53.160;6.990;2022-12-18T15:12:45;-2.50;99.90
52621;DHT22;38515;53.160;6.990;2022-12-18T15:18:13;-2.50;99.90
52621;DHT22;38515;53.160;6.990;2022-12-18T15:20:48;-1.00;99.90
52621;DHT22;38515;53.160;6.990;2022-12-18T15:25:42;-1.70;99.90
52621;DHT22;38515;53.160;6.990;2022-12-18T15:28:38;-1.60;99.90
52621;DHT22;38515;53.160;6.990;2022-12-18T15:33:41;-3.50;99.90
52621;DHT22;38515;53.160;6.990;2022-12-18T15:36:10;-1.20;99.90
52621;DHT22;38515;53.160;6.990;2022-12-18T15:38:36;-1.70;99.90
52621;DHT22;38515;53.160;6.990;2022-12-18T15:43:28;-3.30;99.90
52621;DHT22;38515;53.160;6.990;2022-12-18T15:46:12;-2.60;99.90
52621;DHT22;38515;53.160;6.990;2022-12-18T15:48:43;-3.90;99.90
52621;DHT22;38515;53.160;6.990;2022-12-18T15:53:41;-0.90;99.90
52621;DHT22;38515;53.160;6.990;2022-12-18T15:56:11;-3.40;99.90
52621;DHT22;38515;53.160;6.990;2022-12-18T15:58:56;-2.40;99.90
52621;DHT22;38515;53.160;6.990;2022-12-18T16:01:30;-1.70;99.90
52621;DHT22;38515;53.160;6.990;2022-12-18T16:03:57;-3.30;99.90
52621;DHT22;38515;53.160;6.990;2022-12-18T16:08:49;-2.30;99.90
52621;DHT22;38515;53.160;6.990;2022-12-18T16:11:24;-2.30;99.90
52621;DHT22;38515;53.160;6.990;2022-12-18T16:14:26;-1.40;99.90
52621;DHT22;38515;53.160;6.990;2022-12-18T16:16:58;-4.60;99.90
52621;DHT22;38515;53.160;6.990;2022-12-18T16:19:24;-2.00;99.90
52621;DHT22;38515;53.160;6.990;2022-12-18T16:21:52;-3.40;99.90
52621;DHT22;38515;53.160;6.990;2022-12-18T16:24:27;-2.30;99.90
52621;DHT22;38515;53.160;6.990;2022-12-18T16:26:53;-2.30;99.90
52621;DHT22;38515;53.160;6.990;2022-12-18T16:29:20;-2.20;99.90
52621;DHT22;38515;53.160;6.990;2022-12-18T16:31:50;-2.10;99.90
52621;DHT22;38515;53.160;6.990;2022-12-18T16:36:48;-3.00;99.90
52621;DHT22;38515;53.160;6.990;2022-12-18T16:39:15;-0.50;99.90
52621;DHT22;38515;53.160;6.990;2022-12-18T16:41:42;-2.90;99.90
52621;DHT22;38515;53.160;6.990;2022-12-18T16:44:08;-1.80;99.90
52621;DHT22;38515;53.160;6.990;2022-12-18T16:46:34;-3.80;99.90
52621;DHT22;38515;53.160;6.990;2022-12-18T16:49:00;-0.20;99.90
52621;DHT22;38515;53.160;6.990;2022-12-18T16:51:27;-0.20;99.90
52621;DHT22;38515;53.160;6.990;2022-12-18T16:53:54;-1.30;99.90
52621;DHT22;38515;53.160;6.990;2022-12-18T16:56:23;-1.20;99.90
52621;DHT22;38515;53.160;6.990;2022-12-18T16:58:53;-1.80;99.90
52621;DHT22;38515;53.160;6.990;2022-12-18T17:03:54;0.30;99.90
52621;DHT22;38515;53.160;6.990;2022-12-18T17:06:23;-1.70;99.90
52621;DHT22;38515;53.160;6.990;2022-12-18T17:09:11;-1.70;99.90
52621;DHT22;38515;53.160;6.990;2022-12-18T17:11:39;0.60;99.90
52621;DHT22;38515;53.160;6.990;2022-12-18T17:14:10;0.80;99.90
52621;DHT22;38515;53.160;6.990;2022-12-18T17:19:03;-0.50;99.90
52621;DHT22;38515;53.160;6.990;2022-12-18T17:21:29;-3.30;99.90
52621;DHT22;38515;53.160;6.990;2022-12-18T17:23:59;0.20;99.90
52621;DHT22;38515;53.160;6.990;2022-12-18T17:28:51;-1.30;99.90
52621;DHT22;38515;53.160;6.990;2022-12-18T17:31:20;-0.20;99.90
52621;DHT22;38515;53.160;6.990;2022-12-18T17:33:47;0.30;99.90
52621;DHT22;38515;53.160;6.990;2022-12-18T17:36:14;0.60;99.90
52621;DHT22;38515;53.160;6.990;2022-12-18T17:38:41;-1.60;99.90
52621;DHT22;38515;53.160;6.990;2022-12-18T17:41:10;0.40;99.90
52621;DHT22;38515;53.160;6.990;2022-12-18T17:43:36;-1.60;99.90
52621;DHT22;38515;53.160;6.990;2022-12-18T17:46:12;0.40;99.90
52621;DHT22;38515;53.160;6.990;2022-12-18T17:48:39;0.80;99.90
52621;DHT22;38515;53.160;6.990;2022-12-18T17:51:07;-0.10;99.90
52621;DHT22;38515;53.160;6.990;2022-12-18T17:53:33;-0.30;99.90
52621;DHT22;38515;53.160;6.990;2022-12-18T17:56:00;-1.50;99.90
52621;DHT22;38515;53.160;6.990;2022-12-18T17:58:27;0.10;99.90
52621;DHT22;38515;53.160;6.990;2022-12-18T18:00:54;0.30;99.90
52621;DHT22;38515;53.160;6.990;2022-12-18T18:03:20;0.40;99.90
52621;DHT22;38515;53.160;6.990;2022-12-18T18:05:46;-0.80;99.90
52621;DHT22;38515;53.160;6.990;2022-12-18T18:08:12;-0.60;99.90
52621;DHT22;38515;53.160;6.990;2022-12-18T18:10:38;-2.30;99.90
52621;DHT22;38515;53.160;6.990;2022-12-18T18:13:08;-0.40;99.90
52621;DHT22;38515;53.160;6.990;2022-12-18T18:15:57;-2.90;99.90
52621;DHT22;38515;53.160;6.990;2022-12-18T18:18:24;-0.80;99.90
52621;DHT22;38515;53.160;6.990;2022-12-18T18:23:19;-1.60;99.90
52621;DHT22;38515;53.160;6.990;2022-12-18T18:25:45;-2.80;99.90
52621;DHT22;38515;53.160;6.990;2022-12-18T18:28:11;-1.50;99.90
52621;DHT22;38515;53.160;6.990;2022-12-18T18:30:38;-2.90;99.90
52621;DHT22;38515;53.160;6.990;2022-12-18T18:33:04;-0.40;99.90
52621;DHT22;38515;53.160;6.990;2022-12-18T18:35:30;-2.60;99.90
52621;DHT22;38515;53.160;6.990;2022-12-18T18:37:56;0.20;99.90
52621;DHT22;38515;53.160;6.990;2022-12-18T18:42:48;-0.20;99.90
52621;DHT22;38515;53.160;6.990;2022-12-18T18:45:14;-0.20;99.90
52621;DHT22;38515;53.160;6.990;2022-12-18T18:47:40;-2.50;99.90
52621;DHT22;38515;53.160;6.990;2022-12-18T18:50:06;-2.40;99.90
52621;DHT22;38515;53.160;6.990;2022-12-18T18:52:32;-0.90;99.90
52621;DHT22;38515;53.160;6.990;2022-12-18T18:54:58;-1.70;99.90
52621;DHT22;38515;53.160;6.990;2022-12-18T18:57:24;0.00;99.90
52621;DHT22;38515;53.160;6.990;2022-12-18T18:59:50;-0.10;99.90
52621;DHT22;38515;53.160;6.990;2022-12-18T19:02:16;2.10;99.90
52621;DHT22;38515;53.160;6.990;2022-12-18T19:07:08;-2.10;99.90
52621;DHT22;38515;53.160;6.990;2022-12-18T19:09:35;1.60;99.90
52621;DHT22;38515;53.160;6.990;2022-12-18T19:12:02;-0.70;99.90
52621;DHT22;38515;53.160;6.990;2022-12-18T19:17:13;0.40;99.90
52621;DHT22;38515;53.160;6.990;2022-12-18T19:19:39;-1.30;99.90
52621;DHT22;38515;53.160;6.990;2022-12-18T19:24:31;-0.10;99.90
52621;DHT22;38515;53.160;6.990;2022-12-18T19:26:57;-1.10;99.90
52621;DHT22;38515;53.160;6.990;2022-12-18T19:29:23;-1.10;99.90
52621;DHT22;38515;53.160;6.990;2022-12-18T19:31:49;-1.90;99.90
52621;DHT22;38515;53.160;6.990;2022-12-18T19:36:42;-2.70;99.90
52621;DHT22;38515;53.160;6.990;2022-12-18T19:39:14;-4.10;99.90
52621;DHT22;38515;53.160;6.990;2022-12-18T19:41:41;-3.40;99.90
52621;DHT22;38515;53.160;6.990;2022-12-18T19:44:08;-1.20;99.90
52621;DHT22;38515;53.160;6.990;2022-12-18T19:46:36;-2.00;99.90
52621;DHT22;38515;53.160;6.990;2022-12-18T19:49:03;-1.30;99.90
52621;DHT22;38515;53.160;6.990;2022-12-18T19:51:30;1.20;99.90
52621;DHT22;38515;53.160;6.990;2022-12-18T19:53:57;-2.40;99.90
52621;DHT22;38515;53.160;6.990;2022-12-18T19:56:24;0.10;99.90
52621;DHT22;38515;53.160;6.990;2022-12-18T19:58:52;0.80;99.90
52621;DHT22;38515;53.160;6.990;2022-12-18T20:01:19;0.70;99.90
52621;DHT22;38515;53.160;6.990;2022-12-18T20:03:45;-0.90;99.90
52621;DHT22;38515;53.160;6.990;2022-12-18T20:06:33;-0.60;99.90
52621;DHT22;38515;53.160;6.990;2022-12-18T20:09:03;-0.30;99.90
52621;DHT22;38515;53.160;6.990;2022-12-18T20:11:30;-1.10;99.90
52621;DHT22;38515;53.160;6.990;2022-12-18T20:13:57;0.80;99.90
52621;DHT22;38515;53.160;6.990;2022-12-18T20:18:49;0.50;99.90
52621;DHT22;38515;53.160;6.990;2022-12-18T20:21:15;-2.70;99.90
52621;DHT22;38515;53.160;6.990;2022-12-18T20:23:41;-2.30;99.90
52621;DHT22;38515;53.160;6.990;2022-12-18T20:26:07;-0.70;99.90
52621;DHT22;38515;53.160;6.990;2022-12-18T20:28:33;1.20;99.90
52621;DHT22;38515;53.160;6.990;2022-12-18T20:31:04;0.90;99.90
52621;DHT22;38515;53.160;6.990;2022-12-18T20:33:33;-2.20;99.90
52621;DHT22;38515;53.160;6.990;2022-12-18T20:36:01;1.70;99.90
52621;DHT22;38515;53.160;6.990;2022-12-18T20:38:28;-1.40;99.90
52621;DHT22;38515;53.160;6.990;2022-12-18T20:40:55;0.20;99.90
52621;DHT22;38515;53.160;6.990;2022-12-18T20:45:47;-2.10;99.90
52621;DHT22;38515;53.160;6.990;2022-12-18T20:50:39;2.10;99.90
52621;DHT22;38515;53.160;6.990;2022-12-18T20:53:08;-2.40;99.90